Time;durP1;ratioP1;P1;durP2;ratioP2;P2;SDS_P1;SDS_P2;PMS_P1;PMS_P2;Temp;Humidity;BMP_temperature;BMP_pressure;BME280_temperature;BME280_humidity;BME280_pressure;Samples;Min_cycle;Max_cycle;Signal;HPM_P1;HPM_P2
2022/04/22 00:01:58;;;;;;;7.60;3.50;;;4.40;99.90;;;;;;5044077;28;20140;-70
2022/04/22 00:04:31;;;;;;;5.30;2.08;;;4.30;99.90;;;;;;5041689;28;20044;-63
2022/04/22 00:06:58;;;;;;;6.65;3.38;;;4.30;99.90;;;;;;5037186;28;20047;-66
2022/04/22 00:09:25;;;;;;;3.03;1.95;;;4.20;99.90;;;;;;5047082;28;20399;-66
2022/04/22 00:11:52;;;;;;;5.45;2.28;;;4.20;99.90;;;;;;5041686;28;20048;-66
2022/04/22 00:14:19;;;;;;;6.40;2.35;;;4.10;99.90;;;;;;5032016;28;20473;-68
2022/04/22 00:16:46;;;;;;;6.10;2.88;;;4.10;99.90;;;;;;5031090;28;20715;-65
2022/04/22 00:19:13;;;;;;;3.40;2.83;;;4.00;99.90;;;;;;5031506;28;20049;-64
2022/04/22 00:21:43;;;;;;;4.90;3.40;;;4.00;99.90;;;;;;5031696;28;20132;-67
2022/04/22 00:24:10;;;;;;;6.55;2.53;;;4.00;99.90;;;;;;5042804;28;20076;-65
2022/04/22 00:26:37;;;;;;;5.28;2.47;;;4.00;99.90;;;;;;5040224;28;20148;-66
2022/04/22 00:29:05;;;;;;;4.70;2.95;;;4.00;99.90;;;;;;5036828;28;20053;-66
2022/04/22 00:31:31;;;;;;;3.60;2.75;;;4.00;99.90;;;;;;5020999;28;20068;-63
2022/04/22 00:33:59;;;;;;;4.65;2.75;;;4.00;99.90;;;;;;5050473;28;20045;-65
2022/04/22 00:36:26;;;;;;;7.20;2.90;;;4.00;99.90;;;;;;5041715;28;20072;-64
2022/04/22 00:38:53;;;;;;;7.47;2.92;;;4.00;99.90;;;;;;5043772;28;20136;-64
2022/04/22 00:41:20;;;;;;;4.65;3.53;;;4.00;99.90;;;;;;5028920;28;20064;-64
2022/04/22 00:43:50;;;;;;;6.65;4.60;;;4.00;99.90;;;;;;5041433;28;20069;-64
2022/04/22 00:46:17;;;;;;;3.90;1.95;;;4.00;99.90;;;;;;5040418;28;20098;-63
2022/04/22 00:48:45;;;;;;;5.40;2.50;;;3.90;99.90;;;;;;5038295;28;20045;-66
2022/04/22 00:51:12;;;;;;;7.25;2.38;;;3.90;99.90;;;;;;5040066;28;20061;-68
2022/04/22 00:53:44;;;;;;;3.72;2.85;;;3.90;99.90;;;;;;5041830;28;20060;-64
2022/04/22 00:56:12;;;;;;;4.45;2.60;;;3.80;99.90;;;;;;5041272;28;20124;-66
2022/04/22 00:58:41;;;;;;;5.63;2.30;;;3.80;99.90;;;;;;5038618;28;20075;-67
2022/04/22 01:01:09;;;;;;;7.30;2.47;;;3.80;99.90;;;;;;5042430;28;20040;-66
2022/04/22 01:03:36;;;;;;;4.03;2.80;;;3.80;99.90;;;;;;5040000;28;20131;-66
2022/04/22 01:11:36;;;;;;;4.75;3.13;;;3.80;99.90;;;;;;5027516;28;20096;-64
2022/04/22 01:14:05;;;;;;;7.07;2.97;;;3.90;99.90;;;;;;5030175;28;20583;-65
2022/04/22 01:16:33;;;;;;;7.28;3.42;;;3.90;99.90;;;;;;5027856;28;20053;-66
2022/04/22 01:19:00;;;;;;;5.38;3.13;;;3.90;99.90;;;;;;5034058;28;20050;-66
2022/04/22 01:21:27;;;;;;;4.68;2.63;;;4.00;99.90;;;;;;5034488;28;20702;-66
2022/04/22 01:23:54;;;;;;;6.13;2.55;;;4.00;99.90;;;;;;5033061;28;20041;-64
2022/04/22 01:26:21;;;;;;;8.20;3.00;;;4.00;99.90;;;;;;5037408;28;20045;-65
2022/04/22 01:28:50;;;;;;;6.95;2.90;;;4.00;99.90;;;;;;5038827;28;20053;-65
2022/04/22 01:31:17;;;;;;;5.25;2.30;;;4.00;99.90;;;;;;5030396;28;20048;-66
2022/04/22 01:33:44;;;;;;;6.40;3.15;;;4.00;99.90;;;;;;5040210;28;20663;-66
2022/04/22 01:36:11;;;;;;;4.90;3.35;;;3.90;99.90;;;;;;5040904;28;20099;-65
2022/04/22 01:38:37;;;;;;;5.45;2.92;;;3.90;99.90;;;;;;5038099;28;20049;-68
2022/04/22 01:41:04;;;;;;;9.38;3.13;;;4.00;99.90;;;;;;5038292;28;20057;-65
2022/04/22 01:43:31;;;;;;;4.78;3.00;;;4.00;99.90;;;;;;5026601;28;20404;-64
2022/04/22 01:45:58;;;;;;;3.63;2.63;;;4.00;99.90;;;;;;5036733;28;20049;-70
2022/04/22 01:48:25;;;;;;;8.00;3.65;;;4.00;99.90;;;;;;5038602;28;20426;-66
2022/04/22 01:50:53;;;;;;;7.60;3.85;;;4.00;99.90;;;;;;5027148;28;20653;-64
2022/04/22 01:53:19;;;;;;;5.85;2.67;;;3.90;99.90;;;;;;5042603;28;20735;-64
2022/04/22 01:55:46;;;;;;;6.82;4.25;;;3.90;99.90;;;;;;5030123;28;20872;-71
2022/04/22 01:58:13;;;;;;;5.10;3.15;;;3.90;99.90;;;;;;5032705;28;20435;-65
2022/04/22 02:00:40;;;;;;;6.35;3.10;;;3.90;99.90;;;;;;5040430;28;20041;-67
2022/04/22 02:03:07;;;;;;;4.28;2.78;;;3.90;99.90;;;;;;5025244;28;20524;-64
2022/04/22 02:05:34;;;;;;;7.47;3.50;;;3.80;99.90;;;;;;5045038;28;20086;-63
2022/04/22 02:08:01;;;;;;;5.00;3.08;;;3.80;99.90;;;;;;5034504;28;20045;-68
2022/04/22 02:10:28;;;;;;;6.10;3.10;;;3.90;99.90;;;;;;5047145;28;20374;-67
2022/04/22 02:12:55;;;;;;;5.65;3.28;;;3.90;99.90;;;;;;5036162;28;20175;-65
2022/04/22 02:15:22;;;;;;;4.80;3.63;;;3.90;99.90;;;;;;5024052;28;20139;-67
2022/04/22 02:17:48;;;;;;;6.22;3.35;;;4.00;99.90;;;;;;5036027;28;20158;-66
2022/04/22 02:20:15;;;;;;;4.22;2.90;;;4.00;99.90;;;;;;5033831;28;20128;-64
2022/04/22 02:22:42;;;;;;;5.07;3.10;;;4.00;99.90;;;;;;5039125;28;20094;-68
2022/04/22 02:25:10;;;;;;;6.13;3.60;;;4.00;99.90;;;;;;5028202;28;20061;-66
2022/04/22 02:30:23;;;;;;;9.40;3.72;;;4.00;99.90;;;;;;5034567;28;20053;-68
2022/04/22 02:32:50;;;;;;;5.18;2.75;;;4.00;99.90;;;;;;5030866;28;20043;-68
2022/04/22 02:35:21;;;;;;;5.95;3.13;;;4.00;99.90;;;;;;5051027;28;20710;-70
2022/04/22 02:37:49;;;;;;;2.97;2.63;;;4.00;99.90;;;;;;5042073;28;20042;-67
2022/04/22 02:45:26;;;;;;;6.85;3.97;;;4.00;99.90;;;;;;5031839;28;20120;-64
2022/04/22 02:45:49;;;;;;;4.95;3.35;;;4.00;99.90;;;;;;5037553;28;20111;-70
2022/04/22 02:48:17;;;;;;;9.25;3.65;;;4.00;99.90;;;;;;5044570;28;20168;-63
2022/04/22 02:50:44;;;;;;;11.98;4.47;;;4.00;99.90;;;;;;5030349;28;20077;-66
2022/04/22 02:53:11;;;;;;;5.63;2.95;;;4.00;99.90;;;;;;5037967;28;20155;-65
2022/04/22 02:55:44;;;;;;;5.68;3.45;;;4.00;99.90;;;;;;5030933;28;20041;-68
2022/04/22 02:58:10;;;;;;;10.32;3.90;;;4.00;99.90;;;;;;5053998;28;20109;-65
2022/04/22 03:00:37;;;;;;;5.75;3.03;;;4.00;99.90;;;;;;5045036;28;20060;-71
2022/04/22 03:03:05;;;;;;;7.20;3.47;;;4.00;99.90;;;;;;5038697;28;20054;-67
2022/04/22 03:05:33;;;;;;;7.63;3.28;;;3.90;99.90;;;;;;5046065;28;20134;-64
2022/04/22 03:08:01;;;;;;;5.10;3.13;;;4.00;99.90;;;;;;5041746;28;20081;-69
2022/04/22 03:10:28;;;;;;;7.38;3.03;;;3.90;99.90;;;;;;5053914;28;20157;-68
2022/04/22 03:12:55;;;;;;;3.90;3.13;;;3.90;99.90;;;;;;5033204;28;20476;-66
2022/04/22 03:15:22;;;;;;;8.30;3.72;;;3.90;99.90;;;;;;5029440;28;20997;-67
2022/04/22 03:17:49;;;;;;;5.68;4.30;;;3.90;99.90;;;;;;5044025;28;20033;-66
2022/04/22 03:20:16;;;;;;;5.75;3.47;;;3.90;99.90;;;;;;5031728;28;20566;-65
2022/04/22 03:22:44;;;;;;;7.53;4.28;;;3.80;99.90;;;;;;5029065;28;20108;-68
2022/04/22 03:25:11;;;;;;;9.27;3.40;;;3.80;99.90;;;;;;5046215;28;20139;-64
2022/04/22 03:27:38;;;;;;;7.75;3.58;;;3.80;99.90;;;;;;5035507;28;20072;-66
2022/04/22 03:30:06;;;;;;;5.60;4.25;;;3.80;99.90;;;;;;5038671;28;20057;-66
2022/04/22 03:32:33;;;;;;;7.85;3.70;;;3.80;99.90;;;;;;5032323;28;20048;-65
2022/04/22 03:35:03;;;;;;;7.75;3.92;;;3.80;99.90;;;;;;5023294;28;20096;-65
2022/04/22 03:37:31;;;;;;;5.50;3.88;;;3.80;99.90;;;;;;5024738;28;20105;-67
2022/04/22 03:39:58;;;;;;;18.25;4.05;;;3.90;99.90;;;;;;5028374;28;20398;-65
2022/04/22 03:42:25;;;;;;;8.23;4.38;;;3.80;99.90;;;;;;5032637;28;20067;-67
2022/04/22 03:44:52;;;;;;;10.48;4.38;;;3.90;99.90;;;;;;5037234;28;20056;-64
2022/04/22 03:47:19;;;;;;;5.05;3.55;;;3.90;99.90;;;;;;5050446;28;20041;-65
2022/04/22 03:49:47;;;;;;;13.77;5.22;;;3.90;99.90;;;;;;5050167;28;20209;-64
2022/04/22 03:52:14;;;;;;;6.55;3.80;;;3.90;99.90;;;;;;5029899;28;20033;-65
2022/04/22 03:54:41;;;;;;;9.27;3.95;;;3.90;99.90;;;;;;5045251;28;20068;-65
2022/04/22 03:59:54;;;;;;;7.60;4.28;;;4.00;99.90;;;;;;5036887;28;20037;-64
2022/04/22 04:02:21;;;;;;;7.05;3.55;;;4.00;99.90;;;;;;5048346;28;20064;-65
2022/04/22 04:04:50;;;;;;;8.52;3.60;;;4.00;99.90;;;;;;5028908;28;20107;-64
2022/04/22 04:07:17;;;;;;;26.92;5.35;;;4.00;99.90;;;;;;5046307;28;20044;-65
2022/04/22 04:18:01;;;;;;;8.65;4.25;;;4.00;99.90;;;;;;5048302;28;20122;-66
2022/04/22 04:23:17;;;;;;;13.80;4.43;;;4.00;99.90;;;;;;5030298;28;20068;-63
2022/04/22 04:25:47;;;;;;;5.15;3.47;;;4.00;99.90;;;;;;5043151;28;20429;-64
2022/04/22 04:28:15;;;;;;;6.78;3.40;;;4.00;99.90;;;;;;5032694;28;20076;-65
2022/04/22 04:30:43;;;;;;;7.40;3.58;;;4.00;99.90;;;;;;5029080;28;20052;-64
2022/04/22 04:33:11;;;;;;;7.68;3.78;;;4.10;99.90;;;;;;5027044;28;20084;-68
2022/04/22 04:35:46;;;;;;;8.00;3.85;;;4.20;99.90;;;;;;5024788;28;20045;-65
2022/04/22 04:38:14;;;;;;;6.35;3.50;;;4.20;99.90;;;;;;5050657;28;20049;-64
2022/04/22 04:40:41;;;;;;;4.15;3.20;;;4.20;99.90;;;;;;5042637;28;20052;-65
2022/04/22 04:43:08;;;;;;;5.53;4.05;;;4.30;99.90;;;;;;5039599;28;20049;-64
2022/04/22 04:45:35;;;;;;;11.45;3.47;;;4.40;99.90;;;;;;5029170;28;20447;-70
2022/04/22 04:48:03;;;;;;;10.93;4.07;;;4.50;99.90;;;;;;5042587;28;20048;-66
2022/04/22 04:50:31;;;;;;;9.98;5.78;;;4.60;99.90;;;;;;5032144;28;20057;-67
2022/04/22 04:52:58;;;;;;;7.50;4.03;;;4.70;99.90;;;;;;5035715;28;20040;-66
2022/04/22 04:55:25;;;;;;;8.15;4.22;;;4.80;99.90;;;;;;5033126;28;20482;-63
2022/04/22 04:57:52;;;;;;;11.10;3.80;;;4.90;99.90;;;;;;5027593;28;20140;-66
2022/04/22 05:00:20;;;;;;;6.43;3.15;;;5.00;99.90;;;;;;5039729;28;20077;-66
2022/04/22 05:02:48;;;;;;;9.32;3.33;;;5.00;99.90;;;;;;5042215;28;20134;-63
2022/04/22 05:05:15;;;;;;;8.02;3.80;;;5.10;99.90;;;;;;5032645;28;20128;-64
2022/04/22 05:07:55;;;;;;;8.15;3.10;;;5.20;99.90;;;;;;5043105;28;20713;-69
2022/04/22 05:10:22;;;;;;;5.93;3.13;;;5.30;99.90;;;;;;5041196;28;20076;-65
2022/04/22 05:12:50;;;;;;;5.05;3.20;;;5.40;99.90;;;;;;5048135;28;20041;-67
2022/04/22 05:15:18;;;;;;;5.53;3.33;;;5.40;99.90;;;;;;5030657;28;20186;-64
2022/04/22 05:17:46;;;;;;;6.80;3.67;;;5.50;99.90;;;;;;5050925;28;20191;-63
2022/04/22 05:20:16;;;;;;;5.00;2.80;;;5.60;99.90;;;;;;5028324;28;20188;-64
2022/04/22 05:22:43;;;;;;;5.80;3.58;;;5.60;99.90;;;;;;5035805;28;20505;-64
2022/04/22 05:25:13;;;;;;;6.63;3.13;;;5.70;99.90;;;;;;5029654;28;20044;-66
2022/04/22 05:27:40;;;;;;;4.20;2.70;;;5.70;99.90;;;;;;5035405;28;20087;-67
2022/04/22 05:32:54;;;;;;;8.00;3.10;;;6.00;99.90;;;;;;5045532;28;20049;-64
2022/04/22 05:35:23;;;;;;;5.10;3.17;;;6.10;99.90;;;;;;5037731;28;20150;-64
2022/04/22 05:37:59;;;;;;;5.28;2.85;;;6.10;99.90;;;;;;5026897;28;20114;-72
2022/04/22 05:40:28;;;;;;;8.68;3.08;;;6.20;99.90;;;;;;5029320;28;20041;-65
2022/04/22 05:42:56;;;;;;;7.32;3.15;;;6.40;99.90;;;;;;5040302;28;20041;-64
2022/04/22 05:45:24;;;;;;;11.45;3.10;;;6.50;99.90;;;;;;5038437;28;20157;-67
2022/04/22 05:47:51;;;;;;;19.85;3.85;;;6.60;99.90;;;;;;5013631;28;20065;-66
2022/04/22 05:50:19;;;;;;;8.85;3.22;;;6.70;99.90;;;;;;5036968;28;20487;-65
2022/04/22 05:52:47;;;;;;;5.53;3.00;;;6.70;99.90;;;;;;5027579;28;20768;-68
2022/04/22 05:55:19;;;;;;;5.35;2.78;;;6.90;99.90;;;;;;5033509;28;20124;-66
2022/04/22 05:57:47;;;;;;;10.50;2.78;;;6.90;99.90;;;;;;5039191;28;20124;-63
2022/04/22 06:00:18;;;;;;;3.45;3.10;;;7.00;99.90;;;;;;5030021;28;20450;-69
2022/04/22 06:02:45;;;;;;;;;;;7.00;99.90;;;;;;5037511;28;20046;-65
2022/04/22 06:05:15;;;;;;;8.45;2.92;;;7.10;99.90;;;;;;5034407;28;19975;-67
2022/04/22 06:07:43;;;;;;;10.80;3.22;;;7.20;99.90;;;;;;5038770;28;20069;-65
2022/04/22 06:13:01;;;;;;;6.13;2.88;;;7.50;99.90;;;;;;5040897;28;20908;-66
2022/04/22 06:15:29;;;;;;;7.38;3.10;;;7.50;99.90;;;;;;5033887;28;20097;-67
2022/04/22 06:17:57;;;;;;;3.80;2.63;;;7.60;99.90;;;;;;5041897;28;20132;-64
2022/04/22 06:20:25;;;;;;;4.85;2.50;;;7.70;99.90;;;;;;5031822;28;20118;-65
2022/04/22 06:22:53;;;;;;;4.38;2.25;;;7.80;99.90;;;;;;5036094;28;20069;-65
2022/04/22 06:25:21;;;;;;;3.08;2.65;;;7.90;99.90;;;;;;5036234;28;20041;-67
2022/04/22 06:27:47;;;;;;;12.82;3.00;;;8.00;99.90;;;;;;5039727;28;20164;-64
2022/04/22 06:30:17;;;;;;;6.70;2.90;;;8.10;99.90;;;;;;5033283;28;20068;-71
2022/04/22 06:32:47;;;;;;;5.43;2.80;;;8.20;99.90;;;;;;5029059;28;20033;-65
2022/04/22 06:35:15;;;;;;;6.20;2.83;;;8.30;99.90;;;;;;5035438;28;20069;-65
2022/04/22 06:37:47;;;;;;;4.57;2.55;;;8.30;99.90;;;;;;5035153;28;20043;-66
2022/04/22 06:45:49;;;;;;;3.67;2.75;;;8.70;99.90;;;;;;5040166;28;20052;-65
2022/04/22 06:48:29;;;;;;;6.63;2.28;;;8.70;99.90;;;;;;5028798;28;20038;-67
2022/04/22 06:51:13;;;;;;;4.53;2.63;;;8.90;99.90;;;;;;5032379;28;20811;-70
2022/04/22 06:53:41;;;;;;;4.55;3.45;;;9.00;99.90;;;;;;5035643;28;20417;-68
2022/04/22 06:56:08;;;;;;;4.85;2.17;;;9.10;99.90;;;;;;5034612;28;20101;-63
2022/04/22 06:58:40;;;;;;;5.38;2.63;;;9.10;99.90;;;;;;5040017;28;20408;-64
2022/04/22 07:01:08;;;;;;;3.72;2.17;;;9.30;99.90;;;;;;5037405;28;20045;-63
2022/04/22 07:03:56;;;;;;;5.43;2.58;;;9.50;99.90;;;;;;5034992;28;20139;-64
2022/04/22 07:06:23;;;;;;;1.92;1.50;;;9.60;99.90;;;;;;5033132;28;20033;-66
2022/04/22 07:08:50;;;;;;;3.72;2.17;;;9.70;99.90;;;;;;5035510;28;20734;-64
2022/04/22 07:11:28;;;;;;;3.67;2.53;;;9.80;99.90;;;;;;5038677;28;20560;-68
2022/04/22 07:13:57;;;;;;;3.33;1.90;;;9.90;99.90;;;;;;5039384;28;20029;-68
2022/04/22 07:16:25;;;;;;;2.97;2.22;;;10.00;99.90;;;;;;5028984;28;20061;-68
2022/04/22 07:18:52;;;;;;;4.88;2.15;;;10.10;99.90;;;;;;5032306;28;20057;-71
2022/04/22 07:21:20;;;;;;;8.70;3.67;;;10.00;99.90;;;;;;5033841;28;20120;-65
2022/04/22 07:23:48;;;;;;;4.00;1.95;;;10.00;99.90;;;;;;5035036;28;20156;-67
2022/04/22 07:26:17;;;;;;;3.25;2.95;;;10.10;99.90;;;;;;5032419;28;20914;-70
2022/04/22 07:28:46;;;;;;;3.73;2.53;;;10.10;99.90;;;;;;5034195;28;20374;-64
2022/04/22 07:31:18;;;;;;;4.82;2.63;;;10.20;99.90;;;;;;5033513;28;20049;-64
2022/04/22 07:33:46;;;;;;;7.22;1.67;;;10.20;99.90;;;;;;5039661;28;20601;-67
2022/04/22 07:36:13;;;;;;;4.55;2.60;;;10.30;99.90;;;;;;5031195;28;20077;-66
2022/04/22 07:38:40;;;;;;;3.05;1.90;;;10.40;99.90;;;;;;5041793;28;20050;-64
2022/04/22 07:41:09;;;;;;;4.18;2.22;;;10.60;99.90;;;;;;5039666;28;20075;-65
2022/04/22 07:49:08;;;;;;;6.15;1.70;;;10.80;99.90;;;;;;5041947;28;20047;-66
2022/04/22 07:51:35;;;;;;;3.72;3.42;;;10.80;99.90;;;;;;5056055;28;20390;-64
2022/04/22 07:54:02;;;;;;;4.05;2.28;;;10.80;99.90;;;;;;5039600;28;20404;-67
2022/04/22 07:56:29;;;;;;;3.53;2.13;;;11.00;99.90;;;;;;5044711;28;20399;-64
2022/04/22 07:58:56;;;;;;;2.20;1.90;;;11.00;99.90;;;;;;5038457;28;20509;-67
2022/04/22 08:01:24;;;;;;;4.03;1.67;;;11.10;99.90;;;;;;5046333;28;20040;-67
2022/04/22 08:03:53;;;;;;;4.75;2.28;;;11.20;99.90;;;;;;5035661;28;20387;-66
2022/04/22 08:06:20;;;;;;;5.78;2.35;;;11.20;99.90;;;;;;5042627;28;20147;-65
2022/04/22 08:08:47;;;;;;;9.43;2.50;;;11.30;99.90;;;;;;5033940;28;20168;-64
2022/04/22 08:11:14;;;;;;;7.47;1.90;;;11.50;99.90;;;;;;5036810;28;20444;-65
2022/04/22 08:13:41;;;;;;;6.82;3.03;;;11.60;99.90;;;;;;5030941;28;20133;-66
2022/04/22 08:16:08;;;;;;;5.72;2.42;;;11.70;99.90;;;;;;5029659;28;20135;-65
2022/04/22 08:18:36;;;;;;;3.47;2.08;;;11.80;99.90;;;;;;5038292;28;20068;-67
2022/04/22 08:21:02;;;;;;;3.67;2.10;;;12.00;99.90;;;;;;5039558;28;20194;-67
2022/04/22 08:23:29;;;;;;;11.55;2.35;;;12.10;99.90;;;;;;5043575;28;20041;-65
2022/04/22 08:25:57;;;;;;;2.95;1.77;;;12.20;99.90;;;;;;5030344;28;20057;-71
2022/04/22 08:28:24;;;;;;;6.63;2.63;;;12.20;99.90;;;;;;5035207;28;20073;-68
2022/04/22 08:30:51;;;;;;;2.78;2.28;;;12.30;99.90;;;;;;5026903;28;20040;-64
2022/04/22 08:33:18;;;;;;;3.38;1.83;;;12.20;99.90;;;;;;5022661;28;20056;-64
2022/04/22 08:35:45;;;;;;;3.28;2.67;;;12.30;99.90;;;;;;5027887;28;20049;-64
2022/04/22 08:38:12;;;;;;;2.92;1.95;;;12.50;99.90;;;;;;5030408;28;20068;-65
2022/04/22 08:40:39;;;;;;;3.75;2.08;;;12.50;99.90;;;;;;5026685;28;20117;-65
2022/04/22 08:43:06;;;;;;;3.67;2.10;;;12.60;99.90;;;;;;5035887;28;20192;-67
2022/04/22 08:45:33;;;;;;;3.10;2.22;;;12.80;99.90;;;;;;5042106;28;20049;-66
2022/04/22 08:50:52;;;;;;;6.30;2.05;;;13.10;99.90;;;;;;5040313;28;20051;-66
2022/04/22 08:53:23;;;;;;;4.75;2.22;;;12.50;99.90;;;;;;5021772;28;20107;-71
2022/04/22 08:55:56;;;;;;;9.07;2.83;;;12.00;99.90;;;;;;5025996;28;20036;-68
2022/04/22 08:58:27;;;;;;;2.97;1.80;;;11.90;99.90;;;;;;5027662;28;20656;-69
2022/04/22 09:00:58;;;;;;;2.78;1.83;;;11.80;99.90;;;;;;5029993;28;20124;-66
2022/04/22 09:03:28;;;;;;;3.97;1.83;;;11.70;99.90;;;;;;5033371;28;20052;-65
2022/04/22 09:05:56;;;;;;;4.28;2.63;;;11.70;99.90;;;;;;5019032;28;20384;-67
2022/04/22 09:08:25;;;;;;;5.82;2.78;;;11.60;99.90;;;;;;5019470;28;20595;-64
2022/04/22 09:10:53;;;;;;;4.93;1.92;;;11.60;99.90;;;;;;5021328;28;20037;-68
2022/04/22 09:13:30;;;;;;;5.28;1.95;;;11.60;99.90;;;;;;5036877;28;20436;-67
2022/04/22 09:15:58;;;;;;;4.50;2.10;;;11.60;99.90;;;;;;5022504;28;20384;-65
2022/04/22 09:18:38;;;;;;;9.95;2.47;;;11.60;99.90;;;;;;5026422;28;20436;-67
2022/04/22 09:21:06;;;;;;;5.38;2.75;;;11.40;99.90;;;;;;5041252;28;20033;-67
2022/04/22 09:23:35;;;;;;;3.72;2.38;;;11.00;99.90;;;;;;5034223;28;20513;-64
2022/04/22 09:26:05;;;;;;;5.57;2.08;;;11.10;99.90;;;;;;5022778;28;20141;-67
2022/04/22 09:28:33;;;;;;;5.13;1.70;;;11.30;99.90;;;;;;5025043;28;20627;-66
2022/04/22 09:31:02;;;;;;;5.65;2.33;;;11.40;99.90;;;;;;5033022;28;20120;-69
2022/04/22 09:33:35;;;;;;;9.07;2.70;;;11.60;99.90;;;;;;5028738;28;20129;-67
2022/04/22 09:44:27;;;;;;;8.35;3.33;;;11.90;99.90;;;;;;5022469;28;20042;-70
2022/04/22 09:47:12;;;;;;;4.20;2.28;;;11.80;99.90;;;;;;5045558;28;20087;-69
2022/04/22 09:49:45;;;;;;;5.78;2.17;;;11.80;99.90;;;;;;5032582;28;20115;-65
2022/04/22 09:52:12;;;;;;;7.57;3.08;;;11.80;99.90;;;;;;5029349;28;20049;-64
2022/04/22 09:54:39;;;;;;;4.25;2.00;;;12.00;99.90;;;;;;5036832;28;20115;-66
2022/04/22 09:57:26;;;;;;;6.07;3.30;;;12.20;99.90;;;;;;5035623;28;20051;-66
2022/04/22 09:59:54;;;;;;;4.72;1.70;;;12.30;99.90;;;;;;5030774;28;20033;-70
2022/04/22 10:02:35;;;;;;;3.30;1.80;;;12.40;99.90;;;;;;5006170;28;20106;-65
2022/04/22 10:05:04;;;;;;;5.85;2.90;;;12.20;99.90;;;;;;5030521;28;20120;-66
2022/04/22 10:07:32;;;;;;;11.25;1.83;;;12.20;99.90;;;;;;5041190;28;20053;-65
2022/04/22 10:10:02;;;;;;;8.43;3.08;;;12.50;99.90;;;;;;5034511;28;20215;-65
2022/04/22 10:12:30;;;;;;;;;;;12.50;99.90;;;;;;5030896;28;20050;-66
2022/04/22 10:15:01;;;;;;;5.78;2.10;;;12.50;99.90;;;;;;5029278;28;19917;-65
2022/04/22 10:17:28;;;;;;;8.40;2.47;;;12.40;99.90;;;;;;5030209;28;20113;-71
2022/04/22 10:19:56;;;;;;;9.13;3.60;;;12.30;99.90;;;;;;5030472;28;20097;-65
2022/04/22 10:22:27;;;;;;;4.47;2.13;;;12.50;99.90;;;;;;5027918;28;20053;-70
2022/04/22 10:24:55;;;;;;;3.92;1.77;;;12.60;99.90;;;;;;5031642;28;20045;-69
2022/04/22 10:27:22;;;;;;;6.75;2.63;;;12.70;99.90;;;;;;5025789;28;20041;-69
2022/04/22 10:29:49;;;;;;;4.40;2.30;;;12.80;99.90;;;;;;5033820;28;20080;-66
2022/04/22 10:32:16;;;;;;;4.30;2.28;;;12.60;99.90;;;;;;5030622;28;20471;-68
2022/04/22 10:34:45;;;;;;;5.25;2.47;;;12.30;99.90;;;;;;5034483;28;20041;-66
2022/04/22 10:37:26;;;;;;;7.20;2.45;;;12.30;99.90;;;;;;5042641;28;20037;-64
2022/04/22 10:39:56;;;;;;;3.03;2.67;;;12.30;99.90;;;;;;5036282;28;20128;-69
2022/04/22 10:42:38;;;;;;;3.88;1.88;;;12.30;99.90;;;;;;5031403;28;20168;-67
2022/04/22 10:48:29;;;;;;;6.38;2.72;;;12.40;99.90;;;;;;5035243;28;20137;-68
2022/04/22 10:51:03;;;;;;;4.63;2.47;;;12.40;99.90;;;;;;5039836;28;20057;-71
2022/04/22 10:53:43;;;;;;;4.28;2.03;;;12.60;99.90;;;;;;5036647;28;20107;-68
2022/04/22 10:56:25;;;;;;;4.25;2.67;;;12.70;99.90;;;;;;5031052;28;20084;-65
2022/04/22 10:59:32;;;;;;;3.88;3.10;;;12.60;99.90;;;;;;5045922;28;20140;-69
2022/04/22 11:02:26;;;;;;;8.63;2.70;;;12.80;99.90;;;;;;4989767;28;20140;-66
2022/04/22 11:05:17;;;;;;;9.38;3.40;;;12.80;99.90;;;;;;5030530;28;20045;-68
2022/04/22 11:07:59;;;;;;;;;;;12.70;99.90;;;;;;5040607;28;20041;-65
2022/04/22 11:10:45;;;;;;;2.42;2.20;;;12.80;99.90;;;;;;5041094;28;20551;-65
2022/04/22 11:13:27;;;;;;;5.80;3.00;;;13.10;99.90;;;;;;5032802;28;20044;-67
2022/04/22 11:16:07;;;;;;;6.32;2.47;;;13.20;99.90;;;;;;5026307;28;20077;-67
2022/04/22 11:18:35;;;;;;;3.58;2.30;;;13.20;99.90;;;;;;5026517;28;20068;-72
2022/04/22 11:21:19;;;;;;;10.60;4.15;;;13.00;99.90;;;;;;5036703;28;20033;-67
2022/04/22 11:23:52;;;;;;;3.85;1.92;;;12.80;99.90;;;;;;5032049;28;20040;-65
2022/04/22 11:26:19;;;;;;;10.52;2.33;;;12.80;99.90;;;;;;5022615;28;20048;-65
2022/04/22 11:28:46;;;;;;;3.47;2.13;;;12.60;99.90;;;;;;5027119;28;20057;-67
2022/04/22 11:31:14;;;;;;;3.63;2.00;;;12.60;99.90;;;;;;5028422;28;20136;-68
2022/04/22 11:33:50;;;;;;;12.48;4.43;;;12.40;99.90;;;;;;5024971;28;20073;-67
2022/04/22 11:36:17;;;;;;;7.20;1.70;;;12.50;99.90;;;;;;5027758;28;20133;-64
2022/04/22 11:38:46;;;;;;;5.78;2.20;;;12.70;99.90;;;;;;5026922;28;20769;-65
2022/04/22 11:41:14;;;;;;;7.25;2.45;;;12.80;99.90;;;;;;5036822;28;20041;-66
2022/04/22 11:43:45;;;;;;;5.65;2.88;;;12.90;99.90;;;;;;5025683;28;20045;-66
2022/04/22 11:46:15;;;;;;;5.90;2.80;;;13.00;99.90;;;;;;5025957;28;20105;-64
2022/04/22 11:48:50;;;;;;;6.30;2.20;;;13.20;99.90;;;;;;5032168;28;20045;-65
2022/04/22 11:51:19;;;;;;;10.48;3.28;;;13.30;99.90;;;;;;5036211;28;20171;-66
2022/04/22 11:53:51;;;;;;;5.10;2.45;;;12.90;99.90;;;;;;5036338;28;20451;-67
2022/04/22 11:56:23;;;;;;;14.68;2.13;;;12.80;99.90;;;;;;5037161;28;20131;-65
2022/04/22 11:58:56;;;;;;;6.55;1.90;;;12.80;99.90;;;;;;5034291;28;21251;-66
2022/04/22 12:08:00;;;;;;;6.78;2.70;;;12.80;99.90;;;;;;5037707;28;20060;-69
2022/04/22 12:10:02;;;;;;;4.13;3.03;;;12.60;99.90;;;;;;5037451;28;20102;-64
2022/04/22 12:12:31;;;;;;;6.60;3.22;;;12.30;99.90;;;;;;5033638;28;20673;-66
2022/04/22 12:15:02;;;;;;;4.90;2.30;;;12.10;99.90;;;;;;5043697;28;20072;-65
2022/04/22 12:17:30;;;;;;;3.97;2.22;;;12.10;99.90;;;;;;5028660;28;20136;-67
2022/04/22 12:19:57;;;;;;;9.30;2.75;;;12.10;99.90;;;;;;5036560;28;20399;-65
2022/04/22 12:22:25;;;;;;;2.60;1.85;;;11.80;99.90;;;;;;5033276;28;20064;-68
2022/04/22 12:25:13;;;;;;;8.48;3.17;;;12.00;99.90;;;;;;5041382;28;20176;-67
2022/04/22 12:27:42;;;;;;;6.85;2.40;;;12.10;99.90;;;;;;5025947;28;20140;-65
2022/04/22 12:30:11;;;;;;;4.65;2.65;;;12.00;99.90;;;;;;5027992;28;20100;-67
2022/04/22 12:32:39;;;;;;;6.00;1.97;;;12.10;99.90;;;;;;5026630;28;20055;-66
2022/04/22 12:35:24;;;;;;;5.63;2.50;;;11.90;99.90;;;;;;5022867;28;20049;-67
2022/04/22 12:37:52;;;;;;;7.53;3.15;;;12.10;99.90;;;;;;5029532;28;20155;-65
2022/04/22 12:40:26;;;;;;;5.85;3.00;;;12.10;99.90;;;;;;5029728;28;20111;-65
2022/04/22 12:42:53;;;;;;;9.90;2.88;;;12.20;99.90;;;;;;5024527;28;20080;-64
2022/04/22 12:53:50;;;;;;;9.15;2.58;;;11.90;99.90;;;;;;5025613;28;20132;-66
2022/04/22 12:56:24;;;;;;;6.78;2.80;;;12.10;99.90;;;;;;5023226;28;20134;-65
2022/04/22 12:58:53;;;;;;;7.40;2.55;;;12.40;99.90;;;;;;5031525;28;20045;-65
2022/04/22 13:01:23;;;;;;;3.25;1.95;;;12.40;99.90;;;;;;5028903;28;20136;-66
2022/04/22 13:03:50;;;;;;;5.63;3.63;;;12.80;99.90;;;;;;5031675;28;20128;-66
2022/04/22 13:06:49;;;;;;;7.57;2.97;;;13.00;99.90;;;;;;5024042;28;20152;-64
2022/04/22 13:09:19;;;;;;;4.93;1.92;;;13.30;99.90;;;;;;5033577;28;20042;-70
2022/04/22 13:11:47;;;;;;;8.82;2.40;;;13.40;99.90;;;;;;5039567;28;20098;-67
2022/04/22 13:14:15;;;;;;;2.70;2.17;;;13.40;99.90;;;;;;5035178;28;20041;-70
2022/04/22 13:16:43;;;;;;;11.65;3.05;;;13.60;99.90;;;;;;5022886;28;20056;-64
2022/04/22 13:19:14;;;;;;;9.73;2.55;;;13.60;99.90;;;;;;5023993;28;20061;-66
2022/04/22 13:21:41;;;;;;;;;;;13.20;99.90;;;;;;5020681;28;20132;-67
2022/04/22 13:24:08;;;;;;;4.65;2.95;;;13.30;99.90;;;;;;5028428;28;20005;-67
2022/04/22 13:26:36;;;;;;;4.68;3.15;;;13.40;99.90;;;;;;5031313;28;20078;-68
2022/04/22 13:29:07;;;;;;;5.45;2.35;;;13.20;99.90;;;;;;5030689;28;20128;-67
2022/04/22 13:31:35;;;;;;;3.58;1.90;;;13.10;99.90;;;;;;5024591;28;20038;-66
2022/04/22 13:34:03;;;;;;;3.55;1.83;;;13.00;99.90;;;;;;5033937;28;20045;-69
2022/04/22 13:36:36;;;;;;;6.53;2.40;;;13.20;99.90;;;;;;5025860;28;20057;-68
2022/04/22 13:39:04;;;;;;;8.70;2.70;;;13.50;99.90;;;;;;5025804;28;20044;-67
2022/04/22 13:41:31;;;;;;;5.82;2.70;;;13.30;99.90;;;;;;5025520;28;20051;-67
2022/04/22 13:43:58;;;;;;;7.25;2.25;;;13.20;99.90;;;;;;5030945;28;20098;-68
2022/04/22 13:54:47;;;;;;;4.78;2.10;;;12.80;99.90;;;;;;5035634;28;20541;-67
2022/04/22 13:57:14;;;;;;;6.20;2.75;;;13.10;99.90;;;;;;5044523;28;20155;-68
2022/04/22 13:59:40;;;;;;;6.90;2.85;;;13.30;99.90;;;;;;5036055;28;20116;-67
2022/04/22 14:02:07;;;;;;;4.97;2.10;;;13.70;99.90;;;;;;5043311;28;20041;-66
2022/04/22 14:04:37;;;;;;;3.78;1.88;;;13.90;99.90;;;;;;5042594;28;20049;-71
2022/04/22 14:07:06;;;;;;;7.10;2.33;;;14.20;99.90;;;;;;5045592;28;20041;-64
2022/04/22 14:09:35;;;;;;;5.07;2.38;;;14.30;99.90;;;;;;5029502;28;20829;-67
2022/04/22 14:12:02;;;;;;;3.15;2.00;;;14.30;99.90;;;;;;5028184;28;20072;-67
2022/04/22 14:14:29;;;;;;;3.78;1.70;;;14.60;99.90;;;;;;5032700;28;20136;-64
2022/04/22 14:16:57;;;;;;;4.30;2.60;;;14.80;99.90;;;;;;5032112;28;20758;-67
2022/04/22 14:19:25;;;;;;;7.88;4.07;;;15.00;99.90;;;;;;5035695;28;20083;-69
2022/04/22 14:21:52;;;;;;;5.97;2.22;;;15.20;99.90;;;;;;5040369;28;20439;-64
2022/04/22 14:24:19;;;;;;;5.70;2.33;;;15.20;99.90;;;;;;5029736;28;20667;-69